sensor_id;sensor_type;location;lat;lon;timestamp;P1;durP1;ratioP1;P2;durP2;ratioP2
7645;SDS011;3864;48.180;14.178;2023-07-08T00:00:20;7.57;;;4.50;;
7645;SDS011;3864;48.180;14.178;2023-07-08T00:02:49;9.32;;;4.82;;
7645;SDS011;3864;48.180;14.178;2023-07-08T00:05:17;7.50;;;4.60;;
7645;SDS011;3864;48.180;14.178;2023-07-08T00:07:46;7.80;;;5.00;;
7645;SDS011;3864;48.180;14.178;2023-07-08T00:10:15;6.93;;;4.63;;
7645;SDS011;3864;48.180;14.178;2023-07-08T00:12:45;6.68;;;5.25;;
7645;SDS011;3864;48.180;14.178;2023-07-08T00:15:17;7.43;;;4.82;;
7645;SDS011;3864;48.180;14.178;2023-07-08T00:17:44;7.25;;;4.55;;
7645;SDS011;3864;48.180;14.178;2023-07-08T00:20:13;7.25;;;4.65;;
7645;SDS011;3864;48.180;14.178;2023-07-08T00:22:42;7.47;;;5.03;;
7645;SDS011;3864;48.180;14.178;2023-07-08T00:25:12;7.00;;;4.80;;
7645;SDS011;3864;48.180;14.178;2023-07-08T00:27:40;7.78;;;5.53;;
7645;SDS011;3864;48.180;14.178;2023-07-08T00:30:11;8.05;;;5.15;;
7645;SDS011;3864;48.180;14.178;2023-07-08T00:32:47;9.20;;;5.53;;
7645;SDS011;3864;48.180;14.178;2023-07-08T00:35:19;10.30;;;5.80;;
7645;SDS011;3864;48.180;14.178;2023-07-08T00:37:47;7.65;;;6.32;;
7645;SDS011;3864;48.180;14.178;2023-07-08T00:40:18;11.73;;;6.40;;
7645;SDS011;3864;48.180;14.178;2023-07-08T00:42:47;8.48;;;5.00;;
7645;SDS011;3864;48.180;14.178;2023-07-08T00:45:16;11.00;;;6.28;;
7645;SDS011;3864;48.180;14.178;2023-07-08T00:47:55;9.63;;;5.63;;
7645;SDS011;3864;48.180;14.178;2023-07-08T00:50:26;8.20;;;6.10;;
7645;SDS011;3864;48.180;14.178;2023-07-08T00:56:00;7.68;;;5.63;;
7645;SDS011;3864;48.180;14.178;2023-07-08T00:58:31;8.95;;;5.90;;
7645;SDS011;3864;48.180;14.178;2023-07-08T01:01:05;8.25;;;5.20;;
7645;SDS011;3864;48.180;14.178;2023-07-08T01:03:36;6.85;;;4.82;;
7645;SDS011;3864;48.180;14.178;2023-07-08T01:06:10;7.93;;;5.20;;
7645;SDS011;3864;48.180;14.178;2023-07-08T01:08:38;6.72;;;5.28;;
7645;SDS011;3864;48.180;14.178;2023-07-08T01:11:05;7.93;;;5.40;;
7645;SDS011;3864;48.180;14.178;2023-07-08T01:13:40;8.95;;;5.25;;
7645;SDS011;3864;48.180;14.178;2023-07-08T01:16:11;6.72;;;5.05;;
7645;SDS011;3864;48.180;14.178;2023-07-08T01:18:39;8.00;;;5.43;;
7645;SDS011;3864;48.180;14.178;2023-07-08T01:23:56;7.60;;;5.10;;
7645;SDS011;3864;48.180;14.178;2023-07-08T01:26:24;5.47;;;4.32;;
7645;SDS011;3864;48.180;14.178;2023-07-08T01:28:52;8.07;;;5.15;;
7645;SDS011;3864;48.180;14.178;2023-07-08T01:31:20;8.40;;;5.85;;
7645;SDS011;3864;48.180;14.178;2023-07-08T01:33:48;6.45;;;4.35;;
7645;SDS011;3864;48.180;14.178;2023-07-08T01:36:17;8.95;;;4.65;;
7645;SDS011;3864;48.180;14.178;2023-07-08T01:38:44;8.50;;;5.22;;
7645;SDS011;3864;48.180;14.178;2023-07-08T01:41:14;7.00;;;5.40;;
7645;SDS011;3864;48.180;14.178;2023-07-08T01:43:42;8.60;;;4.75;;
7645;SDS011;3864;48.180;14.178;2023-07-08T01:46:11;8.00;;;5.18;;
7645;SDS011;3864;48.180;14.178;2023-07-08T01:48:44;7.80;;;4.78;;
7645;SDS011;3864;48.180;14.178;2023-07-08T01:51:15;7.53;;;4.65;;
7645;SDS011;3864;48.180;14.178;2023-07-08T01:56:32;7.85;;;4.47;;
7645;SDS011;3864;48.180;14.178;2023-07-08T01:59:00;6.18;;;4.68;;
7645;SDS011;3864;48.180;14.178;2023-07-08T02:01:27;6.72;;;4.93;;
7645;SDS011;3864;48.180;14.178;2023-07-08T02:03:54;7.45;;;4.50;;
7645;SDS011;3864;48.180;14.178;2023-07-08T02:06:22;7.20;;;5.07;;
7645;SDS011;3864;48.180;14.178;2023-07-08T02:08:49;8.07;;;5.55;;
7645;SDS011;3864;48.180;14.178;2023-07-08T02:11:17;8.80;;;4.90;;
7645;SDS011;3864;48.180;14.178;2023-07-08T02:13:46;6.90;;;5.13;;
7645;SDS011;3864;48.180;14.178;2023-07-08T02:16:13;6.05;;;4.82;;
7645;SDS011;3864;48.180;14.178;2023-07-08T02:18:41;6.55;;;4.57;;
7645;SDS011;3864;48.180;14.178;2023-07-08T02:21:08;6.78;;;5.00;;
7645;SDS011;3864;48.180;14.178;2023-07-08T02:23:39;7.25;;;5.00;;
7645;SDS011;3864;48.180;14.178;2023-07-08T02:26:06;8.38;;;5.13;;
7645;SDS011;3864;48.180;14.178;2023-07-08T02:28:33;7.03;;;4.57;;
7645;SDS011;3864;48.180;14.178;2023-07-08T02:31:03;7.43;;;5.20;;
7645;SDS011;3864;48.180;14.178;2023-07-08T02:33:30;10.95;;;5.20;;
7645;SDS011;3864;48.180;14.178;2023-07-08T02:35:58;11.52;;;5.65;;
7645;SDS011;3864;48.180;14.178;2023-07-08T02:38:26;7.63;;;4.93;;
7645;SDS011;3864;48.180;14.178;2023-07-08T02:40:53;10.38;;;5.68;;
7645;SDS011;3864;48.180;14.178;2023-07-08T02:43:20;6.95;;;5.22;;
7645;SDS011;3864;48.180;14.178;2023-07-08T02:45:48;8.55;;;5.28;;
7645;SDS011;3864;48.180;14.178;2023-07-08T02:48:18;7.13;;;4.80;;
7645;SDS011;3864;48.180;14.178;2023-07-08T02:50:46;7.97;;;5.15;;
7645;SDS011;3864;48.180;14.178;2023-07-08T02:53:13;7.57;;;5.75;;
7645;SDS011;3864;48.180;14.178;2023-07-08T02:55:40;8.23;;;5.55;;
7645;SDS011;3864;48.180;14.178;2023-07-08T02:58:08;8.38;;;5.40;;
7645;SDS011;3864;48.180;14.178;2023-07-08T03:00:36;9.70;;;6.20;;
7645;SDS011;3864;48.180;14.178;2023-07-08T03:03:03;8.40;;;4.65;;
7645;SDS011;3864;48.180;14.178;2023-07-08T03:05:32;8.65;;;5.70;;
7645;SDS011;3864;48.180;14.178;2023-07-08T03:07:59;8.60;;;4.93;;
7645;SDS011;3864;48.180;14.178;2023-07-08T03:10:27;6.95;;;4.97;;
7645;SDS011;3864;48.180;14.178;2023-07-08T03:12:54;8.32;;;5.10;;
7645;SDS011;3864;48.180;14.178;2023-07-08T03:15:22;7.35;;;4.90;;
7645;SDS011;3864;48.180;14.178;2023-07-08T03:17:49;9.88;;;6.10;;
7645;SDS011;3864;48.180;14.178;2023-07-08T03:20:18;8.30;;;5.55;;
7645;SDS011;3864;48.180;14.178;2023-07-08T03:22:48;7.47;;;5.40;;
7645;SDS011;3864;48.180;14.178;2023-07-08T03:25:15;8.60;;;5.55;;
7645;SDS011;3864;48.180;14.178;2023-07-08T03:27:44;9.95;;;4.85;;
7645;SDS011;3864;48.180;14.178;2023-07-08T03:30:12;8.48;;;5.15;;
7645;SDS011;3864;48.180;14.178;2023-07-08T03:32:40;9.63;;;5.47;;
7645;SDS011;3864;48.180;14.178;2023-07-08T03:35:07;10.30;;;5.88;;
7645;SDS011;3864;48.180;14.178;2023-07-08T03:37:35;8.18;;;5.80;;
7645;SDS011;3864;48.180;14.178;2023-07-08T03:40:07;8.98;;;5.03;;
7645;SDS011;3864;48.180;14.178;2023-07-08T03:42:36;9.55;;;5.80;;
7645;SDS011;3864;48.180;14.178;2023-07-08T03:45:03;7.55;;;4.97;;
7645;SDS011;3864;48.180;14.178;2023-07-08T03:47:32;7.05;;;5.50;;
7645;SDS011;3864;48.180;14.178;2023-07-08T03:49:59;9.68;;;5.90;;
7645;SDS011;3864;48.180;14.178;2023-07-08T03:52:26;6.93;;;5.05;;
7645;SDS011;3864;48.180;14.178;2023-07-08T03:54:54;8.88;;;5.40;;
7645;SDS011;3864;48.180;14.178;2023-07-08T03:57:23;7.38;;;5.53;;
7645;SDS011;3864;48.180;14.178;2023-07-08T03:59:50;7.93;;;5.07;;
7645;SDS011;3864;48.180;14.178;2023-07-08T04:02:17;7.78;;;5.18;;
7645;SDS011;3864;48.180;14.178;2023-07-08T04:04:45;7.85;;;5.55;;
7645;SDS011;3864;48.180;14.178;2023-07-08T04:07:13;7.55;;;5.70;;
7645;SDS011;3864;48.180;14.178;2023-07-08T04:09:41;7.25;;;5.28;;
7645;SDS011;3864;48.180;14.178;2023-07-08T04:12:09;8.25;;;5.40;;
7645;SDS011;3864;48.180;14.178;2023-07-08T04:14:39;9.18;;;5.45;;
7645;SDS011;3864;48.180;14.178;2023-07-08T04:17:08;8.35;;;5.60;;
7645;SDS011;3864;48.180;14.178;2023-07-08T04:19:37;7.75;;;5.05;;
7645;SDS011;3864;48.180;14.178;2023-07-08T04:22:09;10.10;;;6.05;;
7645;SDS011;3864;48.180;14.178;2023-07-08T04:24:36;7.95;;;5.50;;
7645;SDS011;3864;48.180;14.178;2023-07-08T04:27:04;8.00;;;5.88;;
7645;SDS011;3864;48.180;14.178;2023-07-08T04:29:32;7.45;;;5.30;;
7645;SDS011;3864;48.180;14.178;2023-07-08T04:32:02;7.15;;;4.93;;
7645;SDS011;3864;48.180;14.178;2023-07-08T04:34:29;9.40;;;5.07;;
7645;SDS011;3864;48.180;14.178;2023-07-08T04:36:57;7.05;;;5.45;;
7645;SDS011;3864;48.180;14.178;2023-07-08T04:39:24;7.93;;;5.07;;
7645;SDS011;3864;48.180;14.178;2023-07-08T04:41:51;8.18;;;5.32;;
7645;SDS011;3864;48.180;14.178;2023-07-08T04:44:19;6.88;;;4.95;;
7645;SDS011;3864;48.180;14.178;2023-07-08T04:46:47;8.57;;;5.43;;
7645;SDS011;3864;48.180;14.178;2023-07-08T04:49:20;8.93;;;5.22;;
7645;SDS011;3864;48.180;14.178;2023-07-08T04:51:48;9.73;;;5.60;;
7645;SDS011;3864;48.180;14.178;2023-07-08T04:54:17;9.68;;;5.78;;
7645;SDS011;3864;48.180;14.178;2023-07-08T04:56:45;8.10;;;6.00;;
7645;SDS011;3864;48.180;14.178;2023-07-08T04:59:14;7.88;;;5.43;;
7645;SDS011;3864;48.180;14.178;2023-07-08T05:01:42;8.48;;;5.72;;
7645;SDS011;3864;48.180;14.178;2023-07-08T05:04:12;7.30;;;5.70;;
7645;SDS011;3864;48.180;14.178;2023-07-08T05:06:41;9.43;;;5.50;;
7645;SDS011;3864;48.180;14.178;2023-07-08T05:09:09;9.48;;;5.20;;
7645;SDS011;3864;48.180;14.178;2023-07-08T05:11:36;9.00;;;5.20;;
7645;SDS011;3864;48.180;14.178;2023-07-08T05:14:04;8.02;;;5.28;;
7645;SDS011;3864;48.180;14.178;2023-07-08T05:16:33;8.07;;;4.72;;
7645;SDS011;3864;48.180;14.178;2023-07-08T05:19:01;8.57;;;5.05;;
7645;SDS011;3864;48.180;14.178;2023-07-08T05:21:29;7.43;;;4.57;;
7645;SDS011;3864;48.180;14.178;2023-07-08T05:23:59;7.97;;;5.32;;
7645;SDS011;3864;48.180;14.178;2023-07-08T05:26:27;8.82;;;4.70;;
7645;SDS011;3864;48.180;14.178;2023-07-08T05:28:55;7.03;;;5.13;;
7645;SDS011;3864;48.180;14.178;2023-07-08T05:31:22;7.38;;;4.40;;
7645;SDS011;3864;48.180;14.178;2023-07-08T05:33:50;6.45;;;4.32;;
7645;SDS011;3864;48.180;14.178;2023-07-08T05:36:18;6.07;;;4.70;;
7645;SDS011;3864;48.180;14.178;2023-07-08T05:38:45;6.90;;;4.28;;
7645;SDS011;3864;48.180;14.178;2023-07-08T05:41:14;6.22;;;4.30;;
7645;SDS011;3864;48.180;14.178;2023-07-08T05:43:41;6.75;;;4.57;;
7645;SDS011;3864;48.180;14.178;2023-07-08T05:46:09;5.72;;;4.03;;
7645;SDS011;3864;48.180;14.178;2023-07-08T05:48:36;7.20;;;4.05;;
7645;SDS011;3864;48.180;14.178;2023-07-08T05:51:04;6.28;;;3.95;;
7645;SDS011;3864;48.180;14.178;2023-07-08T05:53:31;6.75;;;4.07;;
7645;SDS011;3864;48.180;14.178;2023-07-08T05:55:58;6.20;;;3.83;;
7645;SDS011;3864;48.180;14.178;2023-07-08T05:58:27;5.82;;;3.47;;
7645;SDS011;3864;48.180;14.178;2023-07-08T06:00:55;6.38;;;3.92;;
7645;SDS011;3864;48.180;14.178;2023-07-08T06:03:23;7.60;;;4.05;;
7645;SDS011;3864;48.180;14.178;2023-07-08T06:05:51;5.60;;;4.03;;
7645;SDS011;3864;48.180;14.178;2023-07-08T06:08:18;6.95;;;4.07;;
7645;SDS011;3864;48.180;14.178;2023-07-08T06:10:45;5.15;;;3.65;;
7645;SDS011;3864;48.180;14.178;2023-07-08T06:13:13;5.45;;;3.80;;
7645;SDS011;3864;48.180;14.178;2023-07-08T06:15:43;6.25;;;4.10;;
7645;SDS011;3864;48.180;14.178;2023-07-08T06:18:10;5.65;;;3.53;;
7645;SDS011;3864;48.180;14.178;2023-07-08T06:20:37;7.50;;;4.00;;
7645;SDS011;3864;48.180;14.178;2023-07-08T06:23:05;6.00;;;3.80;;
7645;SDS011;3864;48.180;14.178;2023-07-08T06:25:32;6.05;;;3.97;;
7645;SDS011;3864;48.180;14.178;2023-07-08T06:28:00;4.93;;;3.80;;
7645;SDS011;3864;48.180;14.178;2023-07-08T06:30:27;6.18;;;3.38;;
7645;SDS011;3864;48.180;14.178;2023-07-08T06:32:57;5.32;;;3.70;;
7645;SDS011;3864;48.180;14.178;2023-07-08T06:35:24;6.10;;;4.20;;
7645;SDS011;3864;48.180;14.178;2023-07-08T06:37:51;7.28;;;4.10;;
7645;SDS011;3864;48.180;14.178;2023-07-08T06:40:19;7.05;;;4.07;;
7645;SDS011;3864;48.180;14.178;2023-07-08T06:42:46;5.78;;;4.15;;
7645;SDS011;3864;48.180;14.178;2023-07-08T06:45:14;6.72;;;4.25;;
7645;SDS011;3864;48.180;14.178;2023-07-08T06:47:42;6.05;;;4.05;;
7645;SDS011;3864;48.180;14.178;2023-07-08T06:50:11;5.10;;;4.00;;
7645;SDS011;3864;48.180;14.178;2023-07-08T06:52:39;5.32;;;3.92;;
7645;SDS011;3864;48.180;14.178;2023-07-08T06:55:07;6.35;;;4.32;;
7645;SDS011;3864;48.180;14.178;2023-07-08T06:57:36;5.78;;;4.43;;
7645;SDS011;3864;48.180;14.178;2023-07-08T07:00:05;6.10;;;3.78;;
7645;SDS011;3864;48.180;14.178;2023-07-08T07:02:33;5.70;;;4.18;;
7645;SDS011;3864;48.180;14.178;2023-07-08T07:05:01;6.60;;;4.03;;
7645;SDS011;3864;48.180;14.178;2023-07-08T07:07:30;5.85;;;4.10;;
7645;SDS011;3864;48.180;14.178;2023-07-08T07:09:59;5.38;;;4.03;;
7645;SDS011;3864;48.180;14.178;2023-07-08T07:12:26;6.22;;;3.90;;
7645;SDS011;3864;48.180;14.178;2023-07-08T07:14:54;5.38;;;3.60;;
7645;SDS011;3864;48.180;14.178;2023-07-08T07:17:23;6.75;;;4.35;;
7645;SDS011;3864;48.180;14.178;2023-07-08T07:19:52;7.32;;;3.70;;
7645;SDS011;3864;48.180;14.178;2023-07-08T07:22:19;6.22;;;3.78;;
7645;SDS011;3864;48.180;14.178;2023-07-08T07:24:48;5.35;;;3.50;;
7645;SDS011;3864;48.180;14.178;2023-07-08T07:27:16;9.88;;;4.00;;
7645;SDS011;3864;48.180;14.178;2023-07-08T07:29:43;5.03;;;3.97;;
7645;SDS011;3864;48.180;14.178;2023-07-08T07:32:12;5.60;;;3.85;;
7645;SDS011;3864;48.180;14.178;2023-07-08T07:34:41;4.68;;;3.63;;
7645;SDS011;3864;48.180;14.178;2023-07-08T07:37:08;4.90;;;3.50;;
7645;SDS011;3864;48.180;14.178;2023-07-08T07:39:38;7.13;;;4.00;;
7645;SDS011;3864;48.180;14.178;2023-07-08T07:42:08;7.00;;;3.80;;
7645;SDS011;3864;48.180;14.178;2023-07-08T07:44:37;5.13;;;3.88;;
7645;SDS011;3864;48.180;14.178;2023-07-08T07:47:05;6.55;;;3.90;;
7645;SDS011;3864;48.180;14.178;2023-07-08T07:49:33;6.10;;;3.90;;
7645;SDS011;3864;48.180;14.178;2023-07-08T07:52:00;5.95;;;4.00;;
7645;SDS011;3864;48.180;14.178;2023-07-08T07:54:28;5.82;;;3.55;;
7645;SDS011;3864;48.180;14.178;2023-07-08T07:56:55;5.07;;;3.88;;
7645;SDS011;3864;48.180;14.178;2023-07-08T07:59:25;6.35;;;3.83;;
7645;SDS011;3864;48.180;14.178;2023-07-08T08:01:52;7.03;;;4.45;;
7645;SDS011;3864;48.180;14.178;2023-07-08T08:04:19;6.32;;;3.95;;
7645;SDS011;3864;48.180;14.178;2023-07-08T08:06:47;6.35;;;4.32;;
7645;SDS011;3864;48.180;14.178;2023-07-08T08:09:14;5.63;;;3.70;;
7645;SDS011;3864;48.180;14.178;2023-07-08T08:11:42;11.20;;;4.20;;
7645;SDS011;3864;48.180;14.178;2023-07-08T08:14:09;5.65;;;3.80;;
7645;SDS011;3864;48.180;14.178;2023-07-08T08:16:38;5.72;;;3.92;;
7645;SDS011;3864;48.180;14.178;2023-07-08T08:19:05;5.63;;;4.20;;
7645;SDS011;3864;48.180;14.178;2023-07-08T08:21:33;6.63;;;4.47;;
7645;SDS011;3864;48.180;14.178;2023-07-08T08:24:01;6.78;;;4.32;;
7645;SDS011;3864;48.180;14.178;2023-07-08T08:26:29;5.40;;;4.22;;
7645;SDS011;3864;48.180;14.178;2023-07-08T08:28:56;5.75;;;3.88;;
7645;SDS011;3864;48.180;14.178;2023-07-08T08:31:24;6.28;;;4.43;;
7645;SDS011;3864;48.180;14.178;2023-07-08T08:33:53;6.28;;;4.05;;
7645;SDS011;3864;48.180;14.178;2023-07-08T08:36:21;6.47;;;4.22;;
7645;SDS011;3864;48.180;14.178;2023-07-08T08:38:48;6.43;;;3.75;;
7645;SDS011;3864;48.180;14.178;2023-07-08T08:41:17;5.95;;;3.85;;
7645;SDS011;3864;48.180;14.178;2023-07-08T08:43:47;6.60;;;3.85;;
7645;SDS011;3864;48.180;14.178;2023-07-08T08:46:16;6.35;;;4.07;;
7645;SDS011;3864;48.180;14.178;2023-07-08T08:48:51;6.40;;;4.10;;
7645;SDS011;3864;48.180;14.178;2023-07-08T08:51:34;5.65;;;4.40;;
7645;SDS011;3864;48.180;14.178;2023-07-08T08:54:00;5.22;;;4.22;;
7645;SDS011;3864;48.180;14.178;2023-07-08T08:56:29;6.70;;;3.90;;
7645;SDS011;3864;48.180;14.178;2023-07-08T08:59:00;5.65;;;3.92;;
7645;SDS011;3864;48.180;14.178;2023-07-08T09:01:33;6.55;;;4.18;;
7645;SDS011;3864;48.180;14.178;2023-07-08T09:04:03;5.35;;;3.35;;
7645;SDS011;3864;48.180;14.178;2023-07-08T09:06:36;5.70;;;4.10;;
7645;SDS011;3864;48.180;14.178;2023-07-08T09:09:12;6.07;;;4.25;;
7645;SDS011;3864;48.180;14.178;2023-07-08T09:11:47;5.25;;;3.88;;
7645;SDS011;3864;48.180;14.178;2023-07-08T09:14:19;6.93;;;3.97;;
7645;SDS011;3864;48.180;14.178;2023-07-08T09:16:52;6.72;;;4.03;;
7645;SDS011;3864;48.180;14.178;2023-07-08T09:19:26;5.93;;;4.47;;
7645;SDS011;3864;48.180;14.178;2023-07-08T09:21:59;5.28;;;4.40;;
7645;SDS011;3864;48.180;14.178;2023-07-08T09:24:41;6.95;;;4.00;;
7645;SDS011;3864;48.180;14.178;2023-07-08T09:27:10;5.47;;;4.20;;
7645;SDS011;3864;48.180;14.178;2023-07-08T09:29:38;6.10;;;3.78;;
7645;SDS011;3864;48.180;14.178;2023-07-08T09:32:13;5.85;;;4.47;;
7645;SDS011;3864;48.180;14.178;2023-07-08T09:34:45;6.93;;;4.10;;
7645;SDS011;3864;48.180;14.178;2023-07-08T09:37:20;5.28;;;4.13;;
7645;SDS011;3864;48.180;14.178;2023-07-08T09:39:55;5.72;;;3.90;;
7645;SDS011;3864;48.180;14.178;2023-07-08T09:42:25;5.40;;;4.05;;
7645;SDS011;3864;48.180;14.178;2023-07-08T09:44:55;8.35;;;3.95;;
7645;SDS011;3864;48.180;14.178;2023-07-08T09:47:24;5.93;;;4.30;;
7645;SDS011;3864;48.180;14.178;2023-07-08T09:49:58;6.50;;;4.20;;
7645;SDS011;3864;48.180;14.178;2023-07-08T09:52:26;6.65;;;4.20;;
7645;SDS011;3864;48.180;14.178;2023-07-08T09:54:57;6.18;;;4.65;;
7645;SDS011;3864;48.180;14.178;2023-07-08T09:57:26;5.60;;;4.10;;
7645;SDS011;3864;48.180;14.178;2023-07-08T09:59:57;6.95;;;4.40;;
7645;SDS011;3864;48.180;14.178;2023-07-08T10:02:30;4.95;;;4.07;;
7645;SDS011;3864;48.180;14.178;2023-07-08T10:05:02;6.50;;;4.43;;
7645;SDS011;3864;48.180;14.178;2023-07-08T10:07:38;7.88;;;4.55;;
7645;SDS011;3864;48.180;14.178;2023-07-08T10:10:06;6.10;;;4.45;;
7645;SDS011;3864;48.180;14.178;2023-07-08T10:12:39;5.22;;;4.03;;
7645;SDS011;3864;48.180;14.178;2023-07-08T10:15:13;7.82;;;4.90;;
7645;SDS011;3864;48.180;14.178;2023-07-08T10:17:47;5.28;;;4.07;;
7645;SDS011;3864;48.180;14.178;2023-07-08T10:20:16;6.40;;;3.63;;
7645;SDS011;3864;48.180;14.178;2023-07-08T10:22:47;9.77;;;4.50;;
7645;SDS011;3864;48.180;14.178;2023-07-08T10:25:26;5.78;;;3.90;;
7645;SDS011;3864;48.180;14.178;2023-07-08T10:28:02;5.10;;;3.63;;
7645;SDS011;3864;48.180;14.178;2023-07-08T10:30:38;4.40;;;3.40;;
7645;SDS011;3864;48.180;14.178;2023-07-08T10:33:33;6.40;;;4.07;;
7645;SDS011;3864;48.180;14.178;2023-07-08T10:36:15;6.05;;;3.95;;
7645;SDS011;3864;48.180;14.178;2023-07-08T10:39:04;5.40;;;4.05;;
7645;SDS011;3864;48.180;14.178;2023-07-08T10:41:53;5.60;;;3.88;;
7645;SDS011;3864;48.180;14.178;2023-07-08T10:44:29;7.55;;;4.22;;
7645;SDS011;3864;48.180;14.178;2023-07-08T10:47:05;4.80;;;3.47;;
7645;SDS011;3864;48.180;14.178;2023-07-08T10:49:50;5.78;;;3.80;;
7645;SDS011;3864;48.180;14.178;2023-07-08T10:52:31;6.47;;;4.20;;
7645;SDS011;3864;48.180;14.178;2023-07-08T10:55:20;6.47;;;4.47;;
7645;SDS011;3864;48.180;14.178;2023-07-08T10:58:02;5.68;;;4.22;;
7645;SDS011;3864;48.180;14.178;2023-07-08T11:00:45;7.93;;;4.50;;
7645;SDS011;3864;48.180;14.178;2023-07-08T11:03:28;6.90;;;5.00;;
7645;SDS011;3864;48.180;14.178;2023-07-08T11:06:17;5.45;;;4.40;;
7645;SDS011;3864;48.180;14.178;2023-07-08T11:08:52;6.00;;;4.57;;
7645;SDS011;3864;48.180;14.178;2023-07-08T11:11:26;6.22;;;4.35;;
7645;SDS011;3864;48.180;14.178;2023-07-08T11:14:03;5.65;;;4.15;;
7645;SDS011;3864;48.180;14.178;2023-07-08T11:16:36;4.70;;;4.00;;
7645;SDS011;3864;48.180;14.178;2023-07-08T11:19:10;6.00;;;4.47;;
7645;SDS011;3864;48.180;14.178;2023-07-08T11:21:43;6.28;;;3.90;;
7645;SDS011;3864;48.180;14.178;2023-07-08T11:24:16;5.40;;;4.30;;
7645;SDS011;3864;48.180;14.178;2023-07-08T11:26:50;6.78;;;4.47;;
7645;SDS011;3864;48.180;14.178;2023-07-08T11:29:20;5.97;;;4.47;;
7645;SDS011;3864;48.180;14.178;2023-07-08T11:31:51;6.35;;;4.22;;
7645;SDS011;3864;48.180;14.178;2023-07-08T11:34:20;5.65;;;3.90;;
7645;SDS011;3864;48.180;14.178;2023-07-08T11:36:49;6.63;;;4.40;;
7645;SDS011;3864;48.180;14.178;2023-07-08T11:39:31;6.75;;;3.90;;
7645;SDS011;3864;48.180;14.178;2023-07-08T11:42:04;5.95;;;4.20;;
7645;SDS011;3864;48.180;14.178;2023-07-08T11:44:41;5.25;;;4.10;;
7645;SDS011;3864;48.180;14.178;2023-07-08T11:47:15;4.78;;;4.00;;
7645;SDS011;3864;48.180;14.178;2023-07-08T11:49:46;7.35;;;4.15;;
7645;SDS011;3864;48.180;14.178;2023-07-08T11:52:16;6.07;;;4.25;;
7645;SDS011;3864;48.180;14.178;2023-07-08T11:54:47;7.47;;;4.20;;
7645;SDS011;3864;48.180;14.178;2023-07-08T11:57:17;5.55;;;4.10;;
7645;SDS011;3864;48.180;14.178;2023-07-08T11:59:45;6.88;;;4.18;;
7645;SDS011;3864;48.180;14.178;2023-07-08T12:02:14;5.53;;;4.03;;
7645;SDS011;3864;48.180;14.178;2023-07-08T12:04:54;6.15;;;3.97;;
7645;SDS011;3864;48.180;14.178;2023-07-08T12:07:30;6.95;;;4.57;;
7645;SDS011;3864;48.180;14.178;2023-07-08T12:10:05;5.50;;;4.35;;
7645;SDS011;3864;48.180;14.178;2023-07-08T12:12:37;7.32;;;4.22;;
7645;SDS011;3864;48.180;14.178;2023-07-08T12:15:14;5.65;;;4.20;;
7645;SDS011;3864;48.180;14.178;2023-07-08T12:17:47;6.25;;;4.57;;
7645;SDS011;3864;48.180;14.178;2023-07-08T12:20:18;6.25;;;4.28;;
7645;SDS011;3864;48.180;14.178;2023-07-08T12:22:48;6.70;;;4.68;;
7645;SDS011;3864;48.180;14.178;2023-07-08T12:25:18;7.05;;;4.20;;
7645;SDS011;3864;48.180;14.178;2023-07-08T12:27:50;5.93;;;4.30;;
7645;SDS011;3864;48.180;14.178;2023-07-08T12:30:18;7.10;;;4.55;;
7645;SDS011;3864;48.180;14.178;2023-07-08T12:32:45;5.97;;;4.00;;
7645;SDS011;3864;48.180;14.178;2023-07-08T12:35:19;5.32;;;3.88;;
7645;SDS011;3864;48.180;14.178;2023-07-08T12:37:59;6.28;;;4.32;;
7645;SDS011;3864;48.180;14.178;2023-07-08T12:40:30;5.72;;;4.05;;
7645;SDS011;3864;48.180;14.178;2023-07-08T12:42:57;6.45;;;4.63;;
7645;SDS011;3864;48.180;14.178;2023-07-08T12:45:26;5.90;;;4.00;;
7645;SDS011;3864;48.180;14.178;2023-07-08T12:47:56;5.90;;;4.18;;
7645;SDS011;3864;48.180;14.178;2023-07-08T12:50:24;8.82;;;4.55;;
7645;SDS011;3864;48.180;14.178;2023-07-08T12:52:51;6.05;;;4.22;;
7645;SDS011;3864;48.180;14.178;2023-07-08T12:55:19;5.90;;;4.20;;
7645;SDS011;3864;48.180;14.178;2023-07-08T12:57:50;5.43;;;4.43;;
7645;SDS011;3864;48.180;14.178;2023-07-08T13:00:21;5.20;;;3.97;;
7645;SDS011;3864;48.180;14.178;2023-07-08T13:02:54;6.43;;;4.18;;
7645;SDS011;3864;48.180;14.178;2023-07-08T13:05:24;5.43;;;4.03;;
7645;SDS011;3864;48.180;14.178;2023-07-08T13:07:53;6.05;;;4.60;;
7645;SDS011;3864;48.180;14.178;2023-07-08T13:10:23;7.15;;;4.35;;
7645;SDS011;3864;48.180;14.178;2023-07-08T13:12:55;6.82;;;4.05;;
7645;SDS011;3864;48.180;14.178;2023-07-08T13:15:27;6.53;;;4.10;;
7645;SDS011;3864;48.180;14.178;2023-07-08T13:17:59;6.35;;;4.53;;
7645;SDS011;3864;48.180;14.178;2023-07-08T13:20:27;5.18;;;4.07;;
7645;SDS011;3864;48.180;14.178;2023-07-08T13:22:57;6.72;;;3.90;;
7645;SDS011;3864;48.180;14.178;2023-07-08T13:25:27;5.90;;;4.28;;
7645;SDS011;3864;48.180;14.178;2023-07-08T13:27:58;6.03;;;4.35;;
7645;SDS011;3864;48.180;14.178;2023-07-08T13:30:28;6.55;;;4.63;;
7645;SDS011;3864;48.180;14.178;2023-07-08T13:32:56;4.70;;;3.75;;
7645;SDS011;3864;48.180;14.178;2023-07-08T13:35:27;5.00;;;4.35;;
7645;SDS011;3864;48.180;14.178;2023-07-08T13:38:02;6.18;;;4.60;;
7645;SDS011;3864;48.180;14.178;2023-07-08T13:40:30;6.70;;;4.55;;
7645;SDS011;3864;48.180;14.178;2023-07-08T13:43:00;5.57;;;4.40;;
7645;SDS011;3864;48.180;14.178;2023-07-08T13:45:30;4.97;;;4.25;;
7645;SDS011;3864;48.180;14.178;2023-07-08T13:47:59;5.68;;;4.43;;
7645;SDS011;3864;48.180;14.178;2023-07-08T13:50:30;6.13;;;4.15;;
7645;SDS011;3864;48.180;14.178;2023-07-08T13:53:15;7.75;;;4.30;;
7645;SDS011;3864;48.180;14.178;2023-07-08T13:55:44;5.97;;;4.63;;
7645;SDS011;3864;48.180;14.178;2023-07-08T13:58:15;6.82;;;4.68;;
7645;SDS011;3864;48.180;14.178;2023-07-08T14:00:44;8.02;;;4.97;;
7645;SDS011;3864;48.180;14.178;2023-07-08T14:03:12;7.57;;;4.80;;
7645;SDS011;3864;48.180;14.178;2023-07-08T14:05:43;7.03;;;4.80;;
7645;SDS011;3864;48.180;14.178;2023-07-08T14:08:12;5.97;;;4.72;;
7645;SDS011;3864;48.180;14.178;2023-07-08T14:10:41;7.25;;;4.70;;
7645;SDS011;3864;48.180;14.178;2023-07-08T14:13:09;8.27;;;4.63;;
7645;SDS011;3864;48.180;14.178;2023-07-08T14:15:38;6.80;;;4.43;;
7645;SDS011;3864;48.180;14.178;2023-07-08T14:18:07;5.43;;;4.40;;
7645;SDS011;3864;48.180;14.178;2023-07-08T14:20:37;5.75;;;4.38;;
7645;SDS011;3864;48.180;14.178;2023-07-08T14:23:05;5.88;;;4.32;;
7645;SDS011;3864;48.180;14.178;2023-07-08T14:25:34;6.30;;;4.47;;
7645;SDS011;3864;48.180;14.178;2023-07-08T14:28:01;6.88;;;4.82;;
7645;SDS011;3864;48.180;14.178;2023-07-08T14:30:30;6.75;;;4.75;;
7645;SDS011;3864;48.180;14.178;2023-07-08T14:32:59;6.53;;;4.95;;
7645;SDS011;3864;48.180;14.178;2023-07-08T14:35:27;6.97;;;5.40;;
7645;SDS011;3864;48.180;14.178;2023-07-08T14:37:56;6.50;;;4.93;;
7645;SDS011;3864;48.180;14.178;2023-07-08T14:40:25;7.60;;;4.85;;
7645;SDS011;3864;48.180;14.178;2023-07-08T14:42:56;5.97;;;4.60;;
7645;SDS011;3864;48.180;14.178;2023-07-08T14:45:28;9.27;;;4.72;;
7645;SDS011;3864;48.180;14.178;2023-07-08T14:47:56;7.60;;;4.68;;
7645;SDS011;3864;48.180;14.178;2023-07-08T14:50:34;7.72;;;4.57;;
7645;SDS011;3864;48.180;14.178;2023-07-08T14:53:03;6.05;;;4.68;;
7645;SDS011;3864;48.180;14.178;2023-07-08T14:55:32;6.50;;;4.55;;
7645;SDS011;3864;48.180;14.178;2023-07-08T14:58:00;8.00;;;4.80;;
7645;SDS011;3864;48.180;14.178;2023-07-08T15:00:30;7.18;;;4.55;;
7645;SDS011;3864;48.180;14.178;2023-07-08T15:02:58;6.32;;;4.43;;
7645;SDS011;3864;48.180;14.178;2023-07-08T15:05:26;7.25;;;4.40;;
7645;SDS011;3864;48.180;14.178;2023-07-08T15:07:56;6.93;;;4.63;;
7645;SDS011;3864;48.180;14.178;2023-07-08T15:10:24;7.00;;;4.82;;
7645;SDS011;3864;48.180;14.178;2023-07-08T15:12:52;8.02;;;4.90;;
7645;SDS011;3864;48.180;14.178;2023-07-08T15:15:21;7.35;;;5.50;;
7645;SDS011;3864;48.180;14.178;2023-07-08T15:17:52;5.80;;;4.75;;
7645;SDS011;3864;48.180;14.178;2023-07-08T15:20:20;6.38;;;4.50;;
7645;SDS011;3864;48.180;14.178;2023-07-08T15:22:47;6.95;;;4.43;;
7645;SDS011;3864;48.180;14.178;2023-07-08T15:25:17;6.63;;;4.50;;